createdAt,value
2023-06-15T00:02:17.429Z,7.63
2023-06-15T00:04:44.071Z,8.65
2023-06-15T00:07:11.108Z,7.65
2023-06-15T00:09:37.544Z,7.30
2023-06-15T00:12:04.201Z,7.95
2023-06-15T00:14:31.278Z,7.95
2023-06-15T00:16:58.901Z,8.57
2023-06-15T00:19:25.593Z,7.82
2023-06-15T00:21:54.608Z,8.23
2023-06-15T00:24:21.893Z,9.68
2023-06-15T00:26:48.427Z,6.40
2023-06-15T00:29:15.178Z,6.97
2023-06-15T00:31:41.668Z,8.77
2023-06-15T00:34:08.098Z,6.97
2023-06-15T00:36:34.585Z,7.07
2023-06-15T00:39:01.083Z,7.05
2023-06-15T00:41:27.576Z,6.90
2023-06-15T00:43:54.045Z,6.80
2023-06-15T00:46:21.379Z,7.90
2023-06-15T00:48:48.257Z,8.02
2023-06-15T00:51:15.160Z,6.90
2023-06-15T00:53:44.863Z,7.18
2023-06-15T00:56:11.803Z,7.63
2023-06-15T00:58:38.485Z,7.18
2023-06-15T01:01:05.038Z,9.18
2023-06-15T01:03:32.364Z,8.93
2023-06-15T01:06:01.021Z,8.38
2023-06-15T01:08:28.193Z,7.10
2023-06-15T01:10:57.353Z,7.15
2023-06-15T01:13:23.967Z,9.68
2023-06-15T01:15:54.394Z,8.05
2023-06-15T01:18:22.420Z,8.88
2023-06-15T01:20:51.266Z,6.90
2023-06-15T01:23:50.844Z,7.85
2023-06-15T01:26:19.670Z,8.77
2023-06-15T01:28:48.888Z,7.28
2023-06-15T01:31:15.890Z,7.55
2023-06-15T01:33:50.123Z,8.77
2023-06-15T01:38:46.525Z,8.20
2023-06-15T01:41:13.854Z,8.73
2023-06-15T01:43:41.066Z,9.68
2023-06-15T01:46:07.942Z,13.25
2023-06-15T01:48:34.714Z,9.35
2023-06-15T01:51:03.214Z,7.90
2023-06-15T01:53:29.705Z,8.55
2023-06-15T01:55:57.593Z,9.18
2023-06-15T01:58:24.183Z,8.27
2023-06-15T02:00:50.798Z,8.75
2023-06-15T02:03:17.475Z,8.77
2023-06-15T02:05:44.044Z,7.38
2023-06-15T02:08:12.081Z,7.47
2023-06-15T02:10:38.972Z,9.20
2023-06-15T02:13:11.560Z,8.00
2023-06-15T02:15:38.224Z,8.25
2023-06-15T02:18:13.389Z,9.05
2023-06-15T02:20:44.435Z,9.32
2023-06-15T02:23:14.859Z,7.75
2023-06-15T02:25:41.452Z,10.63
2023-06-15T02:28:07.991Z,8.23
2023-06-15T02:30:34.463Z,11.20
2023-06-15T02:33:02.298Z,7.78
2023-06-15T02:35:29.371Z,7.82
2023-06-15T02:37:56.492Z,7.93
2023-06-15T02:40:23.380Z,7.25
2023-06-15T02:42:49.801Z,8.20
2023-06-15T02:45:17.068Z,6.85
2023-06-15T02:47:43.808Z,7.32
2023-06-15T02:50:10.774Z,8.98
2023-06-15T02:52:38.143Z,9.18
2023-06-15T02:55:05.300Z,8.77
2023-06-15T02:57:31.748Z,8.52
2023-06-15T02:59:58.250Z,10.63
2023-06-15T03:02:24.842Z,7.55
2023-06-15T03:04:51.732Z,7.70
2023-06-15T03:07:21.634Z,8.60
2023-06-15T03:09:49.201Z,8.38
2023-06-15T03:12:16.571Z,8.23
2023-06-15T03:14:45.513Z,7.93
2023-06-15T03:17:14.347Z,7.88
2023-06-15T03:19:41.460Z,8.18
2023-06-15T03:22:10.956Z,8.38
2023-06-15T03:24:37.766Z,9.32
2023-06-15T03:27:07.821Z,9.52
2023-06-15T03:29:37.943Z,8.50
2023-06-15T03:32:08.718Z,7.22
2023-06-15T03:34:39.188Z,9.07
2023-06-15T03:37:06.857Z,9.40
2023-06-15T03:39:33.569Z,9.00
2023-06-15T03:42:00.063Z,8.65
2023-06-15T03:44:26.894Z,8.00
2023-06-15T03:46:53.394Z,8.07
2023-06-15T03:49:19.847Z,9.50
2023-06-15T03:51:46.656Z,8.40
2023-06-15T03:54:13.063Z,11.18
2023-06-15T03:56:40.221Z,8.82
2023-06-15T03:59:06.702Z,10.15
2023-06-15T04:01:34.064Z,7.88
2023-06-15T04:04:00.745Z,8.45
2023-06-15T04:06:27.621Z,9.85
2023-06-15T04:08:56.272Z,9.13
2023-06-15T04:11:23.187Z,8.23
2023-06-15T04:13:49.784Z,8.07
2023-06-15T04:16:16.735Z,8.48
2023-06-15T04:18:43.232Z,8.75
2023-06-15T04:21:09.637Z,7.90
2023-06-15T04:23:36.315Z,8.88
2023-06-15T04:26:04.323Z,18.73
2023-06-15T04:28:31.712Z,9.10
2023-06-15T04:31:11.587Z,8.40
2023-06-15T04:33:43.399Z,10.07
2023-06-15T04:36:14.928Z,7.90
2023-06-15T04:38:47.661Z,8.77
2023-06-15T04:41:16.125Z,8.32
2023-06-15T04:43:42.969Z,7.70
2023-06-15T04:46:09.956Z,7.95
2023-06-15T04:48:36.501Z,8.80
2023-06-15T04:51:03.088Z,6.75
2023-06-15T04:53:29.595Z,5.93
2023-06-15T04:55:56.105Z,8.13
2023-06-15T04:58:22.688Z,6.90
2023-06-15T05:00:49.092Z,7.03
2023-06-15T05:03:18.429Z,8.75
2023-06-15T05:05:45.740Z,9.30
2023-06-15T05:08:14.953Z,7.45
2023-06-15T05:10:46.281Z,7.45
2023-06-15T05:13:13.780Z,7.53
2023-06-15T05:15:40.313Z,6.68
2023-06-15T05:18:07.018Z,7.32
2023-06-15T05:23:00.042Z,8.02
2023-06-15T05:25:26.599Z,7.40
2023-06-15T05:27:53.103Z,7.35
2023-06-15T05:30:19.978Z,8.73
2023-06-15T05:35:13.021Z,6.13
2023-06-15T05:37:40.012Z,12.13
2023-06-15T05:40:07.009Z,8.32
2023-06-15T05:42:33.467Z,7.75
2023-06-15T05:45:00.005Z,11.63
2023-06-15T05:47:26.723Z,10.35
2023-06-15T05:49:53.213Z,7.60
2023-06-15T05:52:20.303Z,7.32
2023-06-15T05:57:14.046Z,8.30
2023-06-15T05:59:40.942Z,7.25
2023-06-15T06:02:08.590Z,8.20
2023-06-15T06:04:35.577Z,8.35
2023-06-15T06:07:06.242Z,8.88
2023-06-15T06:09:34.247Z,9.60
2023-06-15T06:12:01.904Z,9.50
2023-06-15T06:14:29.268Z,8.07
2023-06-15T06:19:25.770Z,9.55
2023-06-15T06:21:52.319Z,8.65
2023-06-15T06:24:22.029Z,7.78
2023-06-15T06:26:50.109Z,9.50
2023-06-15T06:29:16.737Z,9.20
2023-06-15T06:31:44.205Z,9.82
2023-06-15T06:34:11.863Z,9.13
2023-06-15T06:36:38.624Z,8.23
2023-06-15T06:39:05.113Z,10.07
2023-06-15T06:41:31.935Z,7.38
2023-06-15T06:43:58.388Z,7.60
2023-06-15T06:46:25.073Z,9.40
2023-06-15T06:48:51.652Z,6.95
2023-06-15T06:51:18.425Z,6.57
2023-06-15T06:53:45.393Z,7.53
2023-06-15T06:56:11.919Z,8.63
2023-06-15T06:58:38.379Z,7.00
2023-06-15T07:01:04.840Z,6.10
2023-06-15T07:03:31.458Z,7.60
2023-06-15T07:05:59.385Z,6.78
2023-06-15T07:08:26.003Z,7.00
2023-06-15T07:10:52.621Z,7.78
2023-06-15T07:13:19.078Z,8.68
2023-06-15T07:15:45.569Z,6.60
2023-06-15T07:18:15.534Z,6.00
2023-06-15T07:20:42.598Z,7.43
2023-06-15T07:25:35.543Z,6.40
2023-06-15T07:28:02.721Z,7.30
2023-06-15T07:30:30.527Z,6.93
2023-06-15T07:32:57.180Z,6.80
2023-06-15T07:35:23.810Z,11.75
2023-06-15T07:37:50.318Z,7.47
2023-06-15T07:40:17.266Z,6.72
2023-06-15T07:42:44.052Z,8.20
2023-06-15T07:45:14.228Z,6.55
2023-06-15T07:47:42.901Z,8.20
2023-06-15T07:54:10.936Z,6.32
2023-06-15T07:56:37.885Z,8.90
2023-06-15T08:03:05.716Z,6.93
2023-06-15T08:05:32.380Z,5.50
2023-06-15T08:08:10.952Z,6.78
2023-06-15T08:17:40.099Z,6.32
2023-06-15T08:30:09.231Z,5.07
2023-06-15T08:32:36.130Z,5.95
2023-06-15T08:35:02.681Z,7.53
2023-06-15T08:39:57.810Z,5.53
2023-06-15T08:42:26.982Z,6.97
2023-06-15T08:44:55.740Z,7.57
2023-06-15T08:47:23.244Z,6.57
2023-06-15T08:55:37.784Z,7.20
2023-06-15T09:02:47.748Z,7.20
2023-06-15T09:05:36.414Z,6.38
2023-06-15T09:08:38.288Z,7.88
2023-06-15T09:11:09.612Z,7.53
2023-06-15T09:13:36.766Z,6.75
2023-06-15T09:16:10.292Z,4.68
2023-06-15T09:18:48.121Z,6.07
2023-06-15T09:21:16.599Z,6.97
2023-06-15T09:23:45.994Z,6.38
2023-06-15T09:26:24.602Z,6.30
2023-06-15T09:45:31.048Z,4.20
2023-06-15T09:56:53.712Z,5.43
2023-06-15T10:01:50.512Z,5.18
2023-06-15T10:15:38.505Z,4.75
2023-06-15T10:26:36.535Z,5.57
2023-06-15T10:29:14.027Z,5.32
2023-06-15T10:31:52.390Z,5.55
2023-06-15T10:34:42.081Z,4.75
2023-06-15T10:37:25.233Z,6.32
2023-06-15T10:39:56.797Z,6.10
2023-06-15T10:42:27.100Z,5.55
2023-06-15T10:44:53.720Z,5.72
2023-06-15T10:47:23.920Z,6.43
2023-06-15T10:49:52.512Z,5.97
2023-06-15T10:52:22.827Z,6.05
2023-06-15T10:54:54.921Z,9.73
2023-06-15T10:57:36.882Z,5.88
2023-06-15T11:06:28.296Z,6.30
2023-06-15T11:09:06.475Z,6.47
2023-06-15T11:11:54.767Z,7.28
2023-06-15T11:14:28.177Z,4.95
2023-06-15T11:17:04.480Z,5.80
2023-06-15T11:19:31.749Z,5.45
2023-06-15T11:22:07.051Z,5.30
2023-06-15T11:24:39.225Z,5.03
2023-06-15T11:27:10.132Z,5.53
2023-06-15T11:29:40.105Z,3.75
2023-06-15T11:32:08.562Z,5.60
2023-06-15T11:34:39.461Z,7.38
2023-06-15T11:37:09.154Z,6.07
2023-06-15T11:39:36.684Z,4.93
2023-06-15T11:42:05.340Z,5.07
2023-06-15T11:44:32.040Z,5.57
2023-06-15T11:50:09.198Z,5.10
2023-06-15T11:52:36.405Z,4.40
2023-06-15T11:55:11.166Z,5.00
2023-06-15T11:57:40.001Z,4.70
2023-06-15T12:00:09.389Z,5.28
2023-06-15T12:02:36.350Z,5.13
2023-06-15T12:05:03.925Z,4.55
2023-06-15T12:07:38.595Z,5.93
2023-06-15T12:10:08.184Z,5.88
2023-06-15T12:12:36.519Z,4.47
2023-06-15T12:15:04.705Z,5.20
2023-06-15T12:17:34.671Z,7.22
2023-06-15T12:20:10.774Z,5.45
2023-06-15T12:22:42.079Z,4.45
2023-06-15T12:25:09.325Z,5.70
2023-06-15T12:27:52.924Z,4.63
2023-06-15T12:30:22.227Z,4.80
2023-06-15T12:32:50.502Z,6.75
2023-06-15T12:35:39.417Z,10.43
2023-06-15T12:38:10.812Z,5.50
2023-06-15T12:40:41.279Z,4.47
2023-06-15T12:43:08.479Z,4.22
2023-06-15T12:45:35.035Z,4.78
2023-06-15T12:48:02.403Z,5.78
2023-06-15T12:50:32.764Z,5.60
2023-06-15T12:53:00.729Z,4.45
2023-06-15T12:55:28.065Z,6.32
2023-06-15T12:57:56.136Z,5.80
2023-06-15T13:00:27.411Z,6.07
2023-06-15T13:02:54.969Z,5.13
2023-06-15T13:05:21.880Z,5.30
2023-06-15T13:07:48.845Z,5.90
2023-06-15T13:10:16.295Z,5.00
2023-06-15T13:12:44.449Z,5.65
2023-06-15T13:15:11.619Z,4.63
2023-06-15T13:17:38.548Z,5.95
2023-06-15T13:20:06.529Z,4.63
2023-06-15T13:22:33.240Z,7.00
2023-06-15T13:25:00.079Z,4.43
2023-06-15T13:27:26.749Z,8.38
2023-06-15T13:29:53.653Z,9.38
2023-06-15T13:32:20.518Z,5.00
2023-06-15T13:34:46.967Z,6.18
2023-06-15T13:37:17.339Z,5.20
2023-06-15T13:39:44.610Z,5.10
2023-06-15T13:42:12.852Z,6.25
2023-06-15T13:44:39.542Z,6.72
2023-06-15T13:47:08.095Z,8.68
2023-06-15T13:49:34.751Z,5.13
2023-06-15T13:52:01.886Z,6.15
2023-06-15T13:54:28.440Z,6.53
2023-06-15T13:56:56.137Z,6.28
2023-06-15T13:59:22.740Z,4.68
2023-06-15T14:01:49.370Z,6.82
2023-06-15T14:04:16.090Z,6.57
2023-06-15T14:06:42.697Z,6.00
2023-06-15T14:09:09.182Z,10.68
2023-06-15T14:11:36.660Z,4.38
2023-06-15T14:14:03.233Z,4.68
2023-06-15T14:16:30.007Z,6.05
2023-06-15T14:18:58.364Z,7.72
2023-06-15T14:21:25.245Z,5.10
2023-06-15T14:23:51.807Z,4.88
2023-06-15T14:26:18.428Z,5.15
2023-06-15T14:28:44.901Z,7.85
2023-06-15T14:31:11.496Z,4.05
2023-06-15T14:33:38.112Z,5.43
2023-06-15T14:36:05.002Z,4.40
2023-06-15T14:38:31.482Z,6.20
2023-06-15T14:40:58.299Z,4.22
2023-06-15T14:43:24.764Z,4.45
2023-06-15T14:45:51.308Z,5.20
2023-06-15T14:48:17.950Z,5.15
2023-06-15T14:53:10.795Z,8.07
2023-06-15T14:55:38.313Z,6.13
2023-06-15T14:58:05.118Z,5.65
2023-06-15T15:00:31.578Z,7.47
2023-06-15T15:02:58.154Z,5.85
2023-06-15T15:07:51.757Z,4.55
2023-06-15T15:10:19.008Z,6.43
2023-06-15T15:12:48.106Z,5.43
2023-06-15T15:15:14.818Z,6.28
2023-06-15T15:17:43.308Z,4.93
2023-06-15T15:20:10.580Z,4.60
2023-06-15T15:22:38.682Z,4.82
2023-06-15T15:25:05.389Z,4.90
2023-06-15T15:29:58.414Z,5.30
2023-06-15T15:32:24.919Z,4.22
2023-06-15T15:34:51.663Z,4.68
2023-06-15T15:37:18.581Z,4.15
2023-06-15T15:39:44.986Z,4.60
2023-06-15T15:42:11.963Z,4.70
2023-06-15T15:44:38.849Z,4.53
2023-06-15T15:47:06.125Z,3.97
2023-06-15T15:49:32.721Z,4.60
2023-06-15T15:51:59.201Z,4.13
2023-06-15T15:54:25.839Z,4.40
2023-06-15T15:56:52.374Z,3.63
2023-06-15T15:59:22.686Z,4.18
2023-06-15T16:01:49.688Z,5.70
2023-06-15T16:04:16.278Z,5.80
2023-06-15T16:06:42.732Z,3.97
2023-06-15T16:09:09.504Z,5.40
2023-06-15T16:14:05.115Z,5.07
2023-06-15T16:16:31.659Z,4.10
2023-06-15T16:18:58.206Z,4.18
2023-06-15T16:21:25.825Z,4.30
2023-06-15T16:23:52.338Z,4.72
2023-06-15T16:26:18.790Z,4.25
2023-06-15T16:28:45.555Z,6.40
2023-06-15T16:31:12.062Z,4.20
2023-06-15T16:33:38.487Z,6.00
2023-06-15T16:36:05.171Z,3.55
2023-06-15T16:40:58.187Z,3.90
2023-06-15T16:43:24.668Z,4.70
2023-06-15T16:45:51.238Z,5.97
2023-06-15T16:48:17.754Z,3.40
2023-06-15T16:50:44.280Z,5.20
2023-06-15T16:53:13.033Z,4.15
2023-06-15T16:55:40.436Z,12.02
2023-06-15T16:58:06.895Z,4.05
2023-06-15T17:00:33.533Z,4.13
2023-06-15T17:03:00.306Z,5.78
2023-06-15T17:05:26.992Z,3.03
2023-06-15T17:07:53.649Z,4.60
2023-06-15T17:10:20.611Z,4.38
2023-06-15T17:12:47.273Z,3.88
2023-06-15T17:15:13.822Z,3.95
2023-06-15T17:17:40.349Z,4.93
2023-06-15T17:20:07.370Z,2.65
2023-06-15T17:22:34.462Z,3.88
2023-06-15T17:25:01.499Z,3.90
2023-06-15T17:27:28.171Z,3.15
2023-06-15T17:29:54.612Z,4.10
2023-06-15T17:32:21.475Z,3.85
2023-06-15T17:34:47.965Z,5.70
2023-06-15T17:37:14.370Z,5.00
2023-06-15T17:39:40.823Z,3.60
2023-06-15T17:42:07.546Z,4.10
2023-06-15T17:44:34.076Z,5.25
2023-06-15T17:47:01.091Z,3.75
2023-06-15T17:49:27.612Z,4.10
2023-06-15T17:51:54.039Z,3.92
2023-06-15T17:54:20.708Z,5.10
2023-06-15T17:56:47.267Z,4.38
2023-06-15T17:59:13.829Z,3.65
2023-06-15T18:01:40.389Z,5.80
2023-06-15T18:04:07.399Z,4.93
2023-06-15T18:06:34.072Z,4.07
2023-06-15T18:09:00.635Z,7.05
2023-06-15T18:11:27.148Z,3.90
2023-06-15T18:13:54.773Z,4.40
2023-06-15T18:16:21.374Z,3.60
2023-06-15T18:18:47.923Z,4.18
2023-06-15T18:21:14.455Z,5.25
2023-06-15T18:23:41.033Z,4.68
2023-06-15T18:26:09.905Z,4.53
2023-06-15T18:28:36.551Z,5.75
2023-06-15T18:31:03.423Z,4.68
2023-06-15T18:35:56.450Z,6.72
2023-06-15T18:38:23.150Z,4.25
2023-06-15T18:40:49.775Z,4.93
2023-06-15T18:43:16.391Z,4.32
2023-06-15T18:45:43.031Z,6.15
2023-06-15T18:48:09.659Z,4.38
2023-06-15T18:50:36.202Z,4.57
2023-06-15T18:53:03.788Z,4.32
2023-06-15T18:55:30.376Z,4.80
2023-06-15T18:57:56.978Z,4.80
2023-06-15T19:00:23.467Z,5.03
2023-06-15T19:02:50.180Z,4.78
2023-06-15T19:05:16.845Z,4.88
2023-06-15T19:07:44.528Z,5.10
2023-06-15T19:10:13.274Z,4.25
2023-06-15T19:12:40.317Z,5.03
2023-06-15T19:15:09.143Z,6.88
2023-06-15T19:17:37.379Z,4.78
2023-06-15T19:20:04.766Z,4.95
2023-06-15T19:22:31.258Z,5.28
2023-06-15T19:24:57.741Z,5.22
2023-06-15T19:27:25.608Z,4.78
2023-06-15T19:29:52.196Z,4.07
2023-06-15T19:32:18.744Z,4.78
2023-06-15T19:34:45.232Z,4.38
2023-06-15T19:37:11.673Z,5.95
2023-06-15T19:39:38.207Z,5.05
2023-06-15T19:42:05.341Z,4.97
2023-06-15T19:46:58.987Z,5.35
2023-06-15T19:49:29.707Z,4.97
2023-06-15T19:51:58.086Z,4.20
2023-06-15T19:54:24.675Z,5.10
2023-06-15T19:56:51.140Z,5.80
2023-06-15T19:59:19.912Z,6.35
2023-06-15T20:01:46.601Z,4.38
2023-06-15T20:04:13.407Z,5.00
2023-06-15T20:06:39.975Z,5.10
2023-06-15T20:09:06.641Z,10.60
2023-06-15T20:11:33.091Z,5.85
2023-06-15T20:14:00.595Z,6.07
2023-06-15T20:16:27.084Z,4.82
2023-06-15T20:18:55.792Z,4.47
2023-06-15T20:21:24.442Z,5.38
2023-06-15T20:23:50.989Z,5.55
2023-06-15T20:26:17.853Z,5.53
2023-06-15T20:28:44.530Z,4.82
2023-06-15T20:31:11.453Z,5.35
2023-06-15T20:33:38.962Z,5.18
2023-06-15T20:36:06.646Z,5.72
2023-06-15T20:38:35.713Z,5.03
2023-06-15T20:41:05.153Z,6.22
2023-06-15T20:43:32.429Z,4.75
2023-06-15T20:46:00.369Z,5.80
2023-06-15T20:48:29.413Z,5.38
2023-06-15T20:50:56.493Z,5.53
2023-06-15T20:55:50.406Z,6.55
2023-06-15T20:58:17.236Z,6.13
2023-06-15T21:00:44.302Z,5.28
2023-06-15T21:03:11.768Z,5.47
2023-06-15T21:05:38.384Z,5.20
2023-06-15T21:08:05.411Z,4.80
2023-06-15T21:10:32.204Z,5.05
2023-06-15T21:12:58.874Z,5.53
2023-06-15T21:15:25.328Z,5.97
2023-06-15T21:17:51.817Z,5.18
2023-06-15T21:20:18.556Z,7.88
2023-06-15T21:22:45.095Z,7.00
2023-06-15T21:25:12.416Z,5.07
2023-06-15T21:27:38.867Z,6.60
2023-06-15T21:30:08.007Z,6.95
2023-06-15T21:32:35.318Z,5.85
2023-06-15T21:35:01.935Z,5.80
2023-06-15T21:37:28.373Z,5.93
2023-06-15T21:39:54.809Z,5.28
2023-06-15T21:42:21.338Z,4.78
2023-06-15T21:44:52.131Z,4.88
2023-06-15T21:47:19.563Z,4.95
2023-06-15T21:49:46.074Z,6.78
2023-06-15T21:52:16.169Z,5.45
2023-06-15T21:54:43.371Z,6.40
2023-06-15T21:57:13.166Z,5.65
2023-06-15T21:59:43.891Z,5.68
2023-06-15T22:02:10.959Z,5.40
2023-06-15T22:04:38.096Z,5.40
2023-06-15T22:07:05.404Z,6.35
2023-06-15T22:12:02.100Z,5.78
2023-06-15T22:14:28.792Z,5.30
2023-06-15T22:16:56.673Z,5.15
2023-06-15T22:19:23.421Z,6.30
2023-06-15T22:21:50.098Z,5.55
2023-06-15T22:24:16.801Z,6.47
2023-06-15T22:26:46.317Z,5.78
2023-06-15T22:29:17.779Z,5.00
2023-06-15T22:31:49.794Z,7.15
2023-06-15T22:34:17.133Z,6.05
2023-06-15T22:36:44.228Z,7.00
2023-06-15T22:39:11.580Z,4.78
2023-06-15T22:41:39.112Z,6.85
2023-06-15T22:44:06.317Z,5.93
2023-06-15T22:46:32.837Z,6.53
2023-06-15T22:49:02.462Z,6.22
2023-06-15T22:51:33.963Z,6.90
2023-06-15T22:54:00.857Z,7.13
2023-06-15T22:56:27.700Z,6.88
2023-06-15T22:58:55.953Z,7.57
2023-06-15T23:01:23.008Z,5.70
2023-06-15T23:03:49.924Z,6.35
2023-06-15T23:06:20.291Z,6.60
2023-06-15T23:08:54.349Z,6.50
2023-06-15T23:11:21.535Z,7.78
2023-06-15T23:13:55.065Z,7.38
2023-06-15T23:16:23.245Z,6.82
2023-06-15T23:18:50.117Z,7.18
2023-06-15T23:21:16.615Z,6.15
2023-06-15T23:23:46.512Z,6.38
2023-06-15T23:26:16.072Z,6.60
2023-06-15T23:28:44.401Z,6.70
2023-06-15T23:31:11.112Z,6.93
2023-06-15T23:33:37.605Z,6.80
2023-06-15T23:36:04.888Z,7.10
2023-06-15T23:38:31.838Z,6.35
2023-06-15T23:40:58.546Z,5.20
2023-06-15T23:43:24.981Z,5.53
2023-06-15T23:45:51.888Z,5.82
2023-06-15T23:48:18.676Z,5.57
2023-06-15T23:50:45.261Z,6.03
2023-06-15T23:53:13.061Z,7.93
2023-06-15T23:55:43.985Z,5.88
2023-06-15T23:58:11.454Z,6.30
